createdAt,value
2022-12-22T00:00:21.658Z,19.62
2022-12-22T00:01:21.796Z,19.62
2022-12-22T00:02:21.882Z,19.62
2022-12-22T00:03:21.853Z,19.62
2022-12-22T00:04:21.738Z,19.61
2022-12-22T00:05:21.620Z,19.61
2022-12-22T00:06:21.598Z,19.62
2022-12-22T00:07:21.619Z,19.62
2022-12-22T00:08:21.566Z,19.63
2022-12-22T00:09:21.572Z,19.62
2022-12-22T00:10:21.538Z,19.61
2022-12-22T00:11:21.539Z,19.62
2022-12-22T00:12:21.767Z,19.61
2022-12-22T00:13:21.545Z,19.61
2022-12-22T00:14:21.496Z,19.62
2022-12-22T00:15:21.498Z,19.61
2022-12-22T00:16:21.608Z,19.61
2022-12-22T00:17:21.511Z,19.59
2022-12-22T00:18:21.493Z,19.61
2022-12-22T00:19:21.473Z,19.61
2022-12-22T00:20:21.450Z,19.61
2022-12-22T00:21:21.450Z,19.61
2022-12-22T00:22:21.412Z,19.61
2022-12-22T00:23:21.419Z,19.59
2022-12-22T00:24:21.417Z,19.61
2022-12-22T00:25:21.406Z,19.61
2022-12-22T00:26:21.418Z,19.59
2022-12-22T00:27:21.371Z,19.61
2022-12-22T00:28:21.379Z,19.59
2022-12-22T00:29:21.351Z,19.59
2022-12-22T00:30:21.340Z,19.61
2022-12-22T00:31:21.415Z,19.59
2022-12-22T00:32:21.346Z,19.61
2022-12-22T00:33:21.321Z,19.59
2022-12-22T00:34:21.301Z,19.59
2022-12-22T00:35:21.329Z,19.59
2022-12-22T00:36:21.275Z,19.61
2022-12-22T00:37:21.789Z,19.59
2022-12-22T00:38:21.250Z,19.59
2022-12-22T00:39:21.252Z,19.59
2022-12-22T00:40:21.233Z,19.59
2022-12-22T00:41:21.231Z,19.59
2022-12-22T00:42:21.210Z,19.59
2022-12-22T00:43:21.241Z,19.59
2022-12-22T00:44:21.203Z,19.59
2022-12-22T00:45:21.192Z,19.61
2022-12-22T00:46:21.262Z,19.59
2022-12-22T00:47:21.173Z,19.58
2022-12-22T00:48:21.140Z,19.59
2022-12-22T00:49:21.222Z,19.61
2022-12-22T00:50:21.109Z,19.59
2022-12-22T00:51:21.120Z,19.58
2022-12-22T00:52:21.090Z,19.59
2022-12-22T00:53:21.100Z,19.58
2022-12-22T00:54:21.070Z,19.58
2022-12-22T00:55:21.118Z,19.59
2022-12-22T00:56:21.084Z,19.59
2022-12-22T00:57:21.062Z,19.61
2022-12-22T00:58:21.054Z,19.61
2022-12-22T00:59:21.058Z,19.59
2022-12-22T01:00:21.235Z,19.58
2022-12-22T01:01:21.094Z,19.58
2022-12-22T01:02:21.179Z,19.59
2022-12-22T01:03:21.078Z,19.59
2022-12-22T01:04:20.962Z,19.59
2022-12-22T01:05:20.981Z,19.58
2022-12-22T01:06:20.937Z,19.58
2022-12-22T01:07:20.960Z,19.58
2022-12-22T01:08:20.925Z,19.58
2022-12-22T01:09:20.930Z,19.59
2022-12-22T01:10:20.931Z,19.58
2022-12-22T01:11:20.929Z,19.58
2022-12-22T01:12:20.903Z,19.58
2022-12-22T01:13:20.882Z,19.59
2022-12-22T01:14:21.522Z,19.58
2022-12-22T01:15:21.276Z,19.58
2022-12-22T01:16:20.926Z,19.59
2022-12-22T01:17:20.870Z,19.59
2022-12-22T01:18:20.818Z,19.58
2022-12-22T01:19:20.982Z,19.58
2022-12-22T01:20:20.788Z,19.59
2022-12-22T01:21:20.830Z,19.58
2022-12-22T01:22:20.778Z,19.59
2022-12-22T01:23:20.771Z,19.59
2022-12-22T01:24:20.751Z,19.58
2022-12-22T01:25:20.758Z,19.58
2022-12-22T01:26:21.358Z,19.59
2022-12-22T01:27:20.735Z,19.58
2022-12-22T01:28:20.712Z,19.58
2022-12-22T01:29:20.735Z,19.58
2022-12-22T01:30:21.363Z,19.59
2022-12-22T01:31:20.765Z,19.56
2022-12-22T01:32:20.686Z,19.56
2022-12-22T01:33:20.688Z,19.59
2022-12-22T01:34:20.663Z,19.58
2022-12-22T01:35:20.661Z,19.56
2022-12-22T01:36:20.636Z,19.56
2022-12-22T01:37:20.630Z,19.58
2022-12-22T01:38:20.820Z,19.58
2022-12-22T01:39:20.613Z,19.58
2022-12-22T01:40:20.586Z,19.59
2022-12-22T01:41:20.605Z,19.58
2022-12-22T01:42:20.583Z,19.58
2022-12-22T01:43:20.571Z,19.56
2022-12-22T01:44:20.562Z,19.58
2022-12-22T01:45:20.564Z,19.58
2022-12-22T01:46:20.588Z,19.56
2022-12-22T01:47:20.530Z,19.58
2022-12-22T01:48:20.555Z,19.56
2022-12-22T01:49:20.503Z,19.56
2022-12-22T01:50:20.485Z,19.56
2022-12-22T01:51:20.514Z,19.59
2022-12-22T01:52:20.471Z,19.55
2022-12-22T01:53:20.472Z,19.56
2022-12-22T01:54:20.433Z,19.58
2022-12-22T01:55:20.523Z,19.56
2022-12-22T01:56:25.214Z,19.56
2022-12-22T01:57:20.495Z,19.56
2022-12-22T01:58:20.392Z,19.58
2022-12-22T01:59:20.402Z,19.56
2022-12-22T02:00:20.364Z,19.56
2022-12-22T02:01:20.378Z,19.56
2022-12-22T02:02:20.446Z,19.56
2022-12-22T02:03:20.424Z,19.55
2022-12-22T02:04:20.339Z,19.55
2022-12-22T02:05:20.340Z,19.55
2022-12-22T02:06:20.305Z,19.56
2022-12-22T02:07:20.304Z,19.58
2022-12-22T02:08:20.295Z,19.56
2022-12-22T02:09:20.332Z,19.54
2022-12-22T02:10:20.258Z,19.55
2022-12-22T02:11:20.262Z,19.55
2022-12-22T02:12:20.241Z,19.56
2022-12-22T02:13:20.247Z,19.54
2022-12-22T02:14:24.731Z,19.56
2022-12-22T02:15:21.247Z,19.56
2022-12-22T02:16:20.337Z,19.54
2022-12-22T02:17:20.223Z,19.55
2022-12-22T02:18:20.192Z,19.55
2022-12-22T02:19:20.225Z,19.55
2022-12-22T02:20:20.154Z,19.55
2022-12-22T02:21:20.352Z,19.55
2022-12-22T02:22:20.146Z,19.55
2022-12-22T02:23:20.168Z,19.54
2022-12-22T02:24:20.126Z,19.55
2022-12-22T02:25:20.105Z,19.55
2022-12-22T02:26:20.140Z,19.54
2022-12-22T02:27:20.110Z,19.56
2022-12-22T02:28:20.075Z,19.55
2022-12-22T02:29:20.070Z,19.55
2022-12-22T02:30:20.716Z,19.51
2022-12-22T02:31:20.122Z,19.55
2022-12-22T02:32:20.020Z,19.55
2022-12-22T02:33:20.043Z,19.54
2022-12-22T02:34:20.018Z,19.55
2022-12-22T02:35:20.014Z,19.55
2022-12-22T02:36:19.989Z,19.55
2022-12-22T02:37:20.297Z,19.55
2022-12-22T02:38:20.023Z,19.54
2022-12-22T02:39:19.975Z,19.54
2022-12-22T02:40:19.939Z,19.51
2022-12-22T02:41:19.978Z,19.51
2022-12-22T02:42:19.933Z,19.51
2022-12-22T02:43:19.922Z,19.51
2022-12-22T02:44:19.902Z,19.54
2022-12-22T02:45:19.926Z,19.54
2022-12-22T02:46:19.937Z,19.51
2022-12-22T02:47:19.885Z,19.51
2022-12-22T02:48:21.547Z,19.54
2022-12-22T02:49:19.867Z,19.54
2022-12-22T02:50:19.821Z,19.51
2022-12-22T02:51:19.859Z,19.51
2022-12-22T02:52:19.803Z,19.50
2022-12-22T02:53:19.846Z,19.50
2022-12-22T02:54:19.896Z,19.54
2022-12-22T02:55:19.793Z,19.51
2022-12-22T02:56:19.838Z,19.51
2022-12-22T02:57:19.777Z,19.50
2022-12-22T02:58:19.755Z,19.51
2022-12-22T02:59:19.752Z,19.51
2022-12-22T03:00:19.736Z,19.51
2022-12-22T03:01:19.742Z,19.51
2022-12-22T03:02:19.878Z,19.51
2022-12-22T03:03:19.918Z,19.51
2022-12-22T03:04:19.716Z,19.50
2022-12-22T03:05:19.684Z,19.54
2022-12-22T03:06:19.690Z,19.50
2022-12-22T03:07:20.313Z,19.50
2022-12-22T03:08:19.642Z,19.50
2022-12-22T03:09:19.633Z,19.51
2022-12-22T03:10:19.789Z,19.50
2022-12-22T03:11:19.624Z,19.50
2022-12-22T03:12:19.680Z,19.51
2022-12-22T03:13:19.603Z,19.51
2022-12-22T03:14:20.274Z,19.50
2022-12-22T03:15:19.587Z,19.50
2022-12-22T03:16:19.663Z,19.50
2022-12-22T03:17:19.826Z,19.50
2022-12-22T03:18:19.577Z,19.50
2022-12-22T03:19:19.575Z,19.51
2022-12-22T03:20:19.512Z,19.51
2022-12-22T03:21:19.522Z,19.50
2022-12-22T03:22:19.485Z,19.48
2022-12-22T03:23:19.495Z,19.50
2022-12-22T03:24:19.485Z,19.50
2022-12-22T03:25:19.479Z,19.50
2022-12-22T03:26:19.533Z,19.48
2022-12-22T03:27:19.454Z,19.50
2022-12-22T03:28:19.424Z,19.50
2022-12-22T03:29:19.469Z,19.50
2022-12-22T03:30:19.802Z,19.50
2022-12-22T03:31:19.426Z,19.48
2022-12-22T03:32:19.396Z,19.48
2022-12-22T03:33:19.393Z,19.48
2022-12-22T03:34:19.407Z,19.48
2022-12-22T03:35:19.376Z,19.48
2022-12-22T03:36:19.419Z,19.48
2022-12-22T03:37:19.349Z,19.48
2022-12-22T03:38:19.315Z,19.48
2022-12-22T03:39:19.360Z,19.47
2022-12-22T03:40:19.366Z,19.48
2022-12-22T03:41:19.294Z,19.47
2022-12-22T03:42:19.299Z,19.47
2022-12-22T03:43:19.280Z,19.48
2022-12-22T03:44:19.247Z,19.50
2022-12-22T03:45:19.268Z,19.48
2022-12-22T03:46:19.805Z,19.48
2022-12-22T03:47:19.249Z,19.47
2022-12-22T03:48:19.229Z,19.47
2022-12-22T03:49:19.241Z,19.47
2022-12-22T03:50:19.195Z,19.47
2022-12-22T03:51:19.196Z,19.47
2022-12-22T03:52:19.816Z,19.46
2022-12-22T03:53:19.207Z,19.46
2022-12-22T03:54:19.148Z,19.48
2022-12-22T03:55:19.174Z,19.46
2022-12-22T03:56:19.235Z,19.47
2022-12-22T03:57:19.140Z,19.46
2022-12-22T03:58:19.129Z,19.47
2022-12-22T03:59:19.117Z,19.46
2022-12-22T04:00:19.091Z,19.44
2022-12-22T04:01:19.154Z,19.44
2022-12-22T04:02:19.161Z,19.46
2022-12-22T04:03:19.160Z,19.46
2022-12-22T04:04:19.055Z,19.46
2022-12-22T04:05:19.037Z,19.46
2022-12-22T04:06:19.017Z,19.46
2022-12-22T04:08:14.962Z,19.47
2022-12-22T04:09:14.912Z,19.44
2022-12-22T04:10:14.889Z,19.44
2022-12-22T04:11:14.858Z,19.46
2022-12-22T04:12:14.859Z,19.44
2022-12-22T04:13:14.841Z,19.46
2022-12-22T04:14:15.244Z,19.46
2022-12-22T04:15:14.806Z,19.44
2022-12-22T04:16:14.864Z,19.44
2022-12-22T04:17:14.793Z,19.44
2022-12-22T04:18:14.794Z,19.44
2022-12-22T04:19:14.802Z,19.46
2022-12-22T04:20:14.808Z,19.46
2022-12-22T04:21:14.743Z,19.46
2022-12-22T04:22:14.753Z,19.44
2022-12-22T04:23:14.735Z,19.44
2022-12-22T04:24:14.758Z,19.44
2022-12-22T04:25:14.712Z,19.43
2022-12-22T04:26:14.909Z,19.44
2022-12-22T04:27:14.696Z,19.43
2022-12-22T04:28:14.789Z,19.43
2022-12-22T04:29:14.683Z,19.44
2022-12-22T04:30:14.676Z,19.44
2022-12-22T04:31:14.668Z,19.43
2022-12-22T04:32:14.740Z,19.43
2022-12-22T04:33:14.622Z,19.43
2022-12-22T04:34:14.643Z,19.43
2022-12-22T04:35:14.786Z,19.44
2022-12-22T04:36:14.641Z,19.44
2022-12-22T04:37:17.456Z,19.44
2022-12-22T04:38:14.635Z,19.41
2022-12-22T04:39:14.589Z,19.43
2022-12-22T04:40:14.583Z,19.43
2022-12-22T04:41:14.638Z,19.41
2022-12-22T04:42:14.562Z,19.41
2022-12-22T04:43:14.525Z,19.41
2022-12-22T04:44:15.189Z,19.43
2022-12-22T04:45:14.529Z,19.44
2022-12-22T04:46:14.667Z,19.43
2022-12-22T04:47:14.510Z,19.41
2022-12-22T04:48:14.501Z,19.43
2022-12-22T04:49:14.464Z,19.43
2022-12-22T04:50:14.485Z,19.41
2022-12-22T04:51:14.435Z,19.43
2022-12-22T04:52:14.456Z,19.41
2022-12-22T04:53:14.426Z,19.43
2022-12-22T04:54:14.434Z,19.43
2022-12-22T04:55:14.415Z,19.44
2022-12-22T04:56:14.469Z,19.44
2022-12-22T04:57:14.383Z,19.44
2022-12-22T04:58:14.400Z,19.43
2022-12-22T04:59:14.367Z,19.44
2022-12-22T05:00:14.372Z,19.43
2022-12-22T05:01:14.416Z,19.43
2022-12-22T05:02:14.407Z,19.44
2022-12-22T05:03:14.370Z,19.44
2022-12-22T05:04:17.456Z,19.44
2022-12-22T05:05:15.322Z,19.46
2022-12-22T05:06:14.360Z,19.46
2022-12-22T05:07:14.267Z,19.47
2022-12-22T05:08:14.337Z,19.47
2022-12-22T05:09:14.266Z,19.46
2022-12-22T05:10:14.305Z,19.48
2022-12-22T05:11:15.238Z,19.48
2022-12-22T05:12:16.023Z,19.48
2022-12-22T05:13:14.231Z,19.48
2022-12-22T05:14:14.226Z,19.48
2022-12-22T05:15:14.185Z,19.48
2022-12-22T05:16:14.298Z,19.50
2022-12-22T05:17:14.211Z,19.50
2022-12-22T05:18:14.187Z,19.50
2022-12-22T05:19:14.175Z,19.51
2022-12-22T05:20:14.184Z,19.51
2022-12-22T05:21:14.160Z,19.54
2022-12-22T05:22:14.167Z,19.54
2022-12-22T05:23:14.123Z,19.55
2022-12-22T05:24:14.119Z,19.54
2022-12-22T05:25:14.110Z,19.54
2022-12-22T05:26:14.195Z,19.54
2022-12-22T05:27:14.080Z,19.55
2022-12-22T05:28:14.117Z,19.55
2022-12-22T05:29:14.045Z,19.55
2022-12-22T05:30:14.059Z,19.55
2022-12-22T05:31:14.069Z,19.56
2022-12-22T05:32:14.038Z,19.58
2022-12-22T05:33:14.008Z,19.56
2022-12-22T05:34:14.128Z,19.56
2022-12-22T05:35:13.996Z,19.56
2022-12-22T05:36:14.021Z,19.58
2022-12-22T05:37:13.991Z,19.56
2022-12-22T05:38:14.015Z,19.56
2022-12-22T05:39:13.956Z,19.58
2022-12-22T05:40:13.944Z,19.59
2022-12-22T05:41:13.938Z,19.59
2022-12-22T05:42:13.974Z,19.59
2022-12-22T05:43:14.355Z,19.59
2022-12-22T05:44:13.954Z,19.61
2022-12-22T05:45:13.886Z,19.61
2022-12-22T05:46:14.060Z,19.61
2022-12-22T05:47:13.871Z,19.61
2022-12-22T05:48:13.876Z,19.62
2022-12-22T05:49:13.849Z,19.61
2022-12-22T05:50:13.876Z,19.61
2022-12-22T05:51:14.330Z,19.62
2022-12-22T05:52:13.847Z,19.62
2022-12-22T05:53:13.806Z,19.62
2022-12-22T05:54:13.856Z,19.62
2022-12-22T05:55:13.842Z,19.62
2022-12-22T05:56:13.876Z,19.62
2022-12-22T05:57:13.804Z,19.63
2022-12-22T05:58:13.791Z,19.63
2022-12-22T05:59:13.781Z,19.63
2022-12-22T06:00:13.825Z,19.63
2022-12-22T06:01:13.725Z,19.63
2022-12-22T06:02:13.849Z,19.63
2022-12-22T06:03:13.835Z,19.65
2022-12-22T06:04:13.853Z,19.63
2022-12-22T06:05:13.686Z,19.63
2022-12-22T06:06:13.727Z,19.63
2022-12-22T06:07:13.682Z,19.65
2022-12-22T06:08:13.693Z,19.65
2022-12-22T06:09:13.656Z,19.66
2022-12-22T06:10:13.645Z,19.65
2022-12-22T06:11:13.627Z,19.66
2022-12-22T06:12:13.650Z,19.66
2022-12-22T06:13:13.624Z,19.66
2022-12-22T06:14:13.628Z,19.66
2022-12-22T06:15:13.587Z,19.66
2022-12-22T06:16:13.687Z,19.66
2022-12-22T06:17:13.568Z,19.66
2022-12-22T06:18:13.568Z,19.68
2022-12-22T06:19:13.551Z,19.66
2022-12-22T06:20:13.585Z,19.68
2022-12-22T06:21:13.518Z,19.66
2022-12-22T06:22:13.526Z,19.68
2022-12-22T06:23:13.505Z,19.68
2022-12-22T06:24:13.497Z,19.68
2022-12-22T06:25:18.228Z,19.68
2022-12-22T06:26:14.538Z,19.68
2022-12-22T06:27:13.467Z,19.68
2022-12-22T06:28:13.478Z,19.68
2022-12-22T06:29:13.468Z,19.68
2022-12-22T06:30:13.457Z,19.68
2022-12-22T06:31:13.465Z,19.68
2022-12-22T06:32:13.466Z,19.68
2022-12-22T06:33:13.399Z,19.68
2022-12-22T06:34:13.416Z,19.68
2022-12-22T06:35:13.432Z,19.68
2022-12-22T06:36:13.376Z,19.69
2022-12-22T06:37:13.357Z,19.69
2022-12-22T06:38:13.366Z,19.69
2022-12-22T06:39:13.337Z,19.69
2022-12-22T06:40:13.381Z,19.71
2022-12-22T06:41:13.332Z,19.71
2022-12-22T06:42:13.318Z,19.71
2022-12-22T06:43:13.296Z,19.69
2022-12-22T06:44:13.307Z,19.71
2022-12-22T06:45:13.280Z,19.73
2022-12-22T06:46:13.345Z,19.71
2022-12-22T06:47:13.302Z,19.73
2022-12-22T06:48:13.273Z,19.73
2022-12-22T06:49:13.269Z,19.69
2022-12-22T06:50:13.249Z,19.69
2022-12-22T06:51:13.218Z,19.73
2022-12-22T06:52:13.237Z,19.73
2022-12-22T06:53:13.190Z,19.71
2022-12-22T06:54:13.197Z,19.71
2022-12-22T06:55:13.171Z,19.71
2022-12-22T06:56:13.251Z,19.73
2022-12-22T06:57:13.153Z,19.73
2022-12-22T06:58:13.181Z,19.71
2022-12-22T06:59:13.129Z,19.71
2022-12-22T07:00:13.145Z,19.73
2022-12-22T07:01:13.147Z,19.71
2022-12-22T07:02:13.234Z,19.71
2022-12-22T07:03:13.375Z,19.71
2022-12-22T07:04:13.283Z,19.73
2022-12-22T07:05:13.092Z,19.73
2022-12-22T07:06:13.123Z,19.74
2022-12-22T07:07:13.061Z,19.74
2022-12-22T07:08:13.066Z,19.73
2022-12-22T07:09:13.057Z,19.73
2022-12-22T07:10:13.042Z,19.74
2022-12-22T07:11:13.694Z,19.73
2022-12-22T07:12:13.024Z,19.74
2022-12-22T07:13:12.987Z,19.74
2022-12-22T07:14:13.006Z,19.73
2022-12-22T07:15:13.102Z,19.74
2022-12-22T07:16:13.058Z,19.76
2022-12-22T07:17:12.958Z,19.74
2022-12-22T07:18:12.972Z,19.74
2022-12-22T07:19:12.941Z,19.74
2022-12-22T07:20:12.985Z,19.73
2022-12-22T07:21:12.908Z,19.76
2022-12-22T07:22:13.857Z,19.74
2022-12-22T07:23:12.915Z,19.74
2022-12-22T07:24:12.939Z,19.74
2022-12-22T07:25:13.394Z,19.74
2022-12-22T07:26:12.928Z,19.74
2022-12-22T07:27:12.909Z,19.74
2022-12-22T07:28:16.700Z,19.74
2022-12-22T07:29:13.832Z,19.73
2022-12-22T07:30:12.839Z,19.76
2022-12-22T07:31:12.864Z,19.76
2022-12-22T07:32:12.810Z,19.74
2022-12-22T07:33:12.807Z,19.74
2022-12-22T07:34:12.798Z,19.74
2022-12-22T07:35:12.775Z,19.76
2022-12-22T07:36:12.766Z,19.74
2022-12-22T07:37:12.750Z,19.74
2022-12-22T07:38:12.777Z,19.76
2022-12-22T07:39:12.798Z,19.74
2022-12-22T07:40:12.730Z,19.74
2022-12-22T07:41:12.712Z,19.73
2022-12-22T07:42:12.709Z,19.76
2022-12-22T07:43:12.690Z,19.74
2022-12-22T07:44:12.690Z,19.74
2022-12-22T07:45:12.689Z,19.76
2022-12-22T07:46:12.714Z,19.74
2022-12-22T07:47:12.627Z,19.74
2022-12-22T07:48:12.656Z,19.76
2022-12-22T07:49:12.623Z,19.76
2022-12-22T07:50:12.569Z,19.76
2022-12-22T07:51:12.798Z,19.74
2022-12-22T07:52:12.560Z,19.74
2022-12-22T07:53:12.523Z,19.74
2022-12-22T07:54:12.569Z,19.76
2022-12-22T07:55:13.229Z,19.76
2022-12-22T07:56:12.623Z,19.74
2022-12-22T07:57:12.500Z,19.76
2022-12-22T07:58:12.551Z,19.76
2022-12-22T07:59:12.544Z,19.76
2022-12-22T08:00:12.555Z,19.76
2022-12-22T08:01:12.513Z,19.76
2022-12-22T08:02:12.659Z,19.76
2022-12-22T08:03:12.675Z,19.76
2022-12-22T08:04:12.570Z,19.76
2022-12-22T08:05:12.571Z,19.76
2022-12-22T08:06:14.257Z,19.76
2022-12-22T08:07:12.408Z,19.76
2022-12-22T08:08:12.380Z,19.77
2022-12-22T08:09:12.368Z,19.76
2022-12-22T08:10:12.427Z,19.76
2022-12-22T08:11:12.387Z,19.74
2022-12-22T08:12:12.399Z,19.76
2022-12-22T08:13:12.458Z,19.77
2022-12-22T08:14:12.380Z,19.78
2022-12-22T08:15:12.310Z,19.77
2022-12-22T08:16:12.376Z,19.77
2022-12-22T08:17:12.281Z,19.76
2022-12-22T08:18:12.292Z,19.76
2022-12-22T08:19:12.282Z,19.77
2022-12-22T08:20:12.931Z,19.76
2022-12-22T08:21:12.228Z,19.77
2022-12-22T08:22:12.251Z,19.74
2022-12-22T08:23:12.209Z,19.76
2022-12-22T08:24:12.236Z,19.76
2022-12-22T08:25:12.391Z,19.74
2022-12-22T08:26:12.200Z,19.77
2022-12-22T08:27:12.205Z,19.77
2022-12-22T08:28:12.158Z,19.76
2022-12-22T08:29:12.162Z,19.77
2022-12-22T08:30:12.150Z,19.78
2022-12-22T08:31:12.279Z,19.77
2022-12-22T08:32:12.109Z,19.77
2022-12-22T08:33:12.154Z,19.78
2022-12-22T08:34:12.104Z,19.77
2022-12-22T08:35:12.104Z,19.78
2022-12-22T08:36:12.154Z,19.78
2022-12-22T08:37:12.091Z,19.78
2022-12-22T08:38:12.061Z,19.77
2022-12-22T08:39:12.104Z,19.78
2022-12-22T08:40:12.050Z,19.77
2022-12-22T08:41:13.742Z,19.78
2022-12-22T08:42:12.023Z,19.78
2022-12-22T08:43:12.044Z,19.78
2022-12-22T08:44:11.991Z,19.78
2022-12-22T08:45:12.028Z,19.78
2022-12-22T08:46:11.990Z,19.78
2022-12-22T08:47:16.968Z,19.78
2022-12-22T08:48:12.949Z,19.77
2022-12-22T08:49:11.962Z,19.80
2022-12-22T08:50:11.954Z,19.80
2022-12-22T08:51:11.939Z,19.78
2022-12-22T08:52:18.025Z,19.80
2022-12-22T08:53:30.080Z,19.78
2022-12-22T08:54:12.910Z,19.80
2022-12-22T08:55:12.884Z,19.80
2022-12-22T08:56:12.093Z,19.78
2022-12-22T08:57:11.926Z,19.80
2022-12-22T08:58:11.861Z,19.78
2022-12-22T08:59:11.878Z,19.78
2022-12-22T09:00:11.864Z,19.78
2022-12-22T09:01:11.993Z,19.80
2022-12-22T09:02:11.920Z,19.80
2022-12-22T09:03:12.025Z,19.80
2022-12-22T09:04:11.817Z,19.78
2022-12-22T09:05:11.789Z,19.81
2022-12-22T09:06:11.778Z,19.78
2022-12-22T09:07:11.775Z,19.81
2022-12-22T09:09:08.573Z,19.81
2022-12-22T09:10:08.517Z,19.81
2022-12-22T09:11:08.512Z,19.80
2022-12-22T09:12:08.524Z,19.80
2022-12-22T09:13:08.503Z,19.80
2022-12-22T09:14:08.487Z,19.80
2022-12-22T09:15:08.494Z,19.80
2022-12-22T09:16:08.504Z,19.80
2022-12-22T09:17:08.476Z,19.80
2022-12-22T09:18:08.466Z,19.80
2022-12-22T09:19:08.424Z,19.80
2022-12-22T09:20:08.415Z,19.80
2022-12-22T09:21:08.416Z,19.80
2022-12-22T09:22:08.390Z,19.80
2022-12-22T09:23:08.396Z,19.80
2022-12-22T09:24:08.900Z,19.81
2022-12-22T09:25:08.373Z,19.80
2022-12-22T09:26:08.379Z,19.80
2022-12-22T09:27:08.364Z,19.81
2022-12-22T09:28:08.333Z,19.81
2022-12-22T09:29:08.374Z,19.81
2022-12-22T09:30:08.330Z,19.80
2022-12-22T09:31:08.973Z,19.83
2022-12-22T09:32:08.341Z,19.81
2022-12-22T09:33:08.341Z,19.83
2022-12-22T09:34:12.005Z,19.81
2022-12-22T09:35:09.288Z,19.81
2022-12-22T09:36:08.241Z,19.81
2022-12-22T09:37:08.274Z,19.81
2022-12-22T09:38:08.233Z,19.83
2022-12-22T09:39:08.255Z,19.81
2022-12-22T09:40:08.221Z,19.80
2022-12-22T09:41:08.204Z,19.81
2022-12-22T09:42:08.190Z,19.80
2022-12-22T09:43:08.192Z,19.81
2022-12-22T09:44:08.162Z,19.81
2022-12-22T09:45:11.142Z,19.81
2022-12-22T09:46:09.214Z,19.81
2022-12-22T09:47:08.172Z,19.83
2022-12-22T09:48:08.112Z,19.81
2022-12-22T09:49:08.137Z,19.83
2022-12-22T09:50:08.114Z,19.83
2022-12-22T09:51:08.133Z,19.83
2022-12-22T09:52:08.102Z,19.83
2022-12-22T09:53:08.417Z,19.84
2022-12-22T09:54:08.103Z,19.84
2022-12-22T09:55:08.104Z,19.84
2022-12-22T09:56:08.133Z,19.84
2022-12-22T09:57:08.051Z,19.84
2022-12-22T09:58:11.478Z,19.83
2022-12-22T09:59:08.040Z,19.86
2022-12-22T10:00:08.085Z,19.87
2022-12-22T10:01:08.042Z,19.87
2022-12-22T10:02:08.035Z,19.86
2022-12-22T10:03:08.033Z,19.87
2022-12-22T10:04:07.994Z,19.86
2022-12-22T10:05:07.972Z,19.87
2022-12-22T10:06:07.989Z,19.86
2022-12-22T10:07:07.952Z,19.87
2022-12-22T10:08:08.335Z,19.87
2022-12-22T10:09:35.945Z,19.88
2022-12-22T10:10:09.069Z,19.87
2022-12-22T10:11:07.911Z,19.87
2022-12-22T10:12:07.892Z,19.86
2022-12-22T10:13:07.906Z,19.87
2022-12-22T10:14:07.872Z,19.87
2022-12-22T10:15:07.860Z,19.87
2022-12-22T10:16:07.863Z,19.87
2022-12-22T10:17:07.893Z,19.87
2022-12-22T10:18:07.889Z,19.87
2022-12-22T10:19:07.802Z,19.87
2022-12-22T10:20:07.813Z,19.88
2022-12-22T10:21:07.823Z,19.88
2022-12-22T10:22:07.834Z,19.88
2022-12-22T10:23:07.782Z,19.86
2022-12-22T10:24:07.795Z,19.91
2022-12-22T10:25:07.744Z,19.88
2022-12-22T10:26:29.225Z,19.88
2022-12-22T10:27:08.775Z,19.88
2022-12-22T10:28:07.724Z,19.88
2022-12-22T10:29:07.751Z,19.91
2022-12-22T10:30:07.715Z,19.91
2022-12-22T10:31:07.685Z,19.91
2022-12-22T10:32:07.740Z,19.91
2022-12-22T10:33:07.675Z,19.88
2022-12-22T10:34:07.663Z,19.91
2022-12-22T10:35:07.631Z,19.91
2022-12-22T10:36:07.665Z,19.91
2022-12-22T10:37:07.638Z,19.91
2022-12-22T10:38:21.313Z,19.91
2022-12-22T10:39:08.624Z,19.91
2022-12-22T10:40:07.605Z,19.91
2022-12-22T10:41:07.583Z,19.92
2022-12-22T10:42:07.584Z,19.91
2022-12-22T10:43:07.564Z,19.91
2022-12-22T10:44:07.586Z,19.91
2022-12-22T10:45:07.573Z,19.91
2022-12-22T10:46:07.735Z,19.91
2022-12-22T10:47:10.934Z,19.91
2022-12-22T10:48:08.524Z,19.92
2022-12-22T10:49:07.520Z,19.91
2022-12-22T10:50:07.536Z,19.92
2022-12-22T10:51:07.932Z,19.91
2022-12-22T10:52:07.494Z,19.92
2022-12-22T10:53:07.464Z,19.92
2022-12-22T10:54:07.483Z,19.92
2022-12-22T10:55:07.453Z,19.91
2022-12-22T10:56:07.532Z,19.92
2022-12-22T10:57:07.453Z,19.94
2022-12-22T10:58:07.420Z,19.92
2022-12-22T10:59:07.391Z,19.94
2022-12-22T11:00:07.424Z,19.94
2022-12-22T11:01:07.414Z,19.92
2022-12-22T11:02:08.081Z,19.94
2022-12-22T11:03:07.504Z,19.92
2022-12-22T11:04:07.409Z,19.94
2022-12-22T11:05:07.350Z,19.92
2022-12-22T11:06:07.355Z,19.94
2022-12-22T11:07:07.348Z,19.94
2022-12-22T11:08:07.335Z,19.95
2022-12-22T11:09:32.023Z,19.94
2022-12-22T11:10:08.332Z,19.94
2022-12-22T11:11:07.298Z,19.94
2022-12-22T11:12:07.292Z,19.95
2022-12-22T11:13:07.311Z,19.95
2022-12-22T11:14:07.299Z,19.92
2022-12-22T11:15:07.293Z,19.92
2022-12-22T11:16:07.257Z,19.94
2022-12-22T11:17:07.288Z,19.94
2022-12-22T11:18:07.234Z,19.95
2022-12-22T11:19:07.264Z,19.92
2022-12-22T11:20:07.228Z,19.92
2022-12-22T11:21:07.215Z,19.92
2022-12-22T11:22:07.231Z,19.94
2022-12-22T11:23:07.167Z,19.95
2022-12-22T11:24:07.174Z,19.94
2022-12-22T11:25:07.161Z,19.95
2022-12-22T11:26:07.209Z,19.95
2022-12-22T11:27:07.137Z,19.95
2022-12-22T11:28:07.163Z,19.96
2022-12-22T11:29:07.123Z,19.96
2022-12-22T11:30:07.134Z,19.98
2022-12-22T11:31:07.437Z,19.98
2022-12-22T11:32:07.085Z,19.98
2022-12-22T11:33:07.085Z,19.98
2022-12-22T11:34:07.089Z,19.99
2022-12-22T11:35:07.129Z,19.96
2022-12-22T11:36:07.075Z,19.98
2022-12-22T11:37:07.026Z,19.99
2022-12-22T11:38:07.050Z,19.99
2022-12-22T11:39:07.010Z,20.01
2022-12-22T11:40:07.017Z,19.99
2022-12-22T11:41:07.023Z,20.01
2022-12-22T11:42:06.995Z,20.01
2022-12-22T11:43:06.957Z,20.01
2022-12-22T11:44:06.972Z,20.02
2022-12-22T11:45:06.979Z,20.02
2022-12-22T11:46:07.063Z,20.02
2022-12-22T11:47:06.978Z,20.02
2022-12-22T11:48:06.945Z,20.03
2022-12-22T11:49:06.917Z,20.03
2022-12-22T11:50:58.677Z,20.03
2022-12-22T11:51:08.622Z,20.05
2022-12-22T11:52:07.906Z,20.05
2022-12-22T11:53:06.902Z,20.06
2022-12-22T11:54:10.894Z,20.06
2022-12-22T11:55:07.886Z,20.08
2022-12-22T11:56:06.858Z,20.06
2022-12-22T11:57:06.843Z,20.08
2022-12-22T11:58:07.420Z,20.08
2022-12-22T11:59:06.850Z,20.06
2022-12-22T12:00:06.794Z,20.08
2022-12-22T12:01:20.469Z,20.08
2022-12-22T12:02:07.881Z,20.08
2022-12-22T12:03:06.834Z,20.10
2022-12-22T12:04:06.940Z,20.08
2022-12-22T12:05:06.752Z,20.10
2022-12-22T12:06:06.756Z,20.10
2022-12-22T12:07:06.758Z,20.10
2022-12-22T12:08:06.718Z,20.08
2022-12-22T12:09:06.713Z,20.08
2022-12-22T12:10:06.906Z,20.11
2022-12-22T12:11:06.684Z,20.11
2022-12-22T12:12:06.675Z,20.10
2022-12-22T12:13:06.744Z,20.11
2022-12-22T12:14:06.659Z,20.10
2022-12-22T12:15:06.964Z,20.10
2022-12-22T12:16:06.685Z,20.10
2022-12-22T12:17:06.647Z,20.10
2022-12-22T12:18:06.626Z,20.10
2022-12-22T12:19:06.628Z,20.10
2022-12-22T12:20:06.611Z,20.10
2022-12-22T12:21:06.592Z,20.10
2022-12-22T12:22:06.568Z,20.10
2022-12-22T12:23:06.884Z,20.10
2022-12-22T12:24:06.555Z,20.08
2022-12-22T12:25:06.575Z,20.10
2022-12-22T12:26:06.593Z,20.10
2022-12-22T12:27:06.555Z,20.08
2022-12-22T12:28:06.545Z,20.08
2022-12-22T12:29:06.544Z,20.06
2022-12-22T12:30:36.830Z,20.06
2022-12-22T12:31:07.588Z,20.08
2022-12-22T12:32:06.603Z,20.06
2022-12-22T12:33:06.950Z,20.05
2022-12-22T12:34:06.464Z,20.06
2022-12-22T12:35:06.456Z,20.06
2022-12-22T12:36:06.422Z,20.06
2022-12-22T12:37:06.470Z,20.05
2022-12-22T12:38:06.404Z,20.06
2022-12-22T12:39:08.479Z,20.05
2022-12-22T12:40:06.404Z,20.05
2022-12-22T12:41:06.399Z,20.05
2022-12-22T12:42:06.376Z,20.03
2022-12-22T12:43:10.883Z,20.03
2022-12-22T12:44:07.369Z,20.03
2022-12-22T12:45:06.366Z,20.03
2022-12-22T12:46:06.420Z,20.03
2022-12-22T12:47:06.460Z,20.05
2022-12-22T12:48:06.314Z,20.02
2022-12-22T12:49:06.305Z,20.03
2022-12-22T12:50:06.457Z,20.02
2022-12-22T12:51:06.310Z,20.03
2022-12-22T12:52:06.286Z,20.05
2022-12-22T12:53:06.278Z,20.03
2022-12-22T12:54:06.286Z,20.03